Time;durP1;ratioP1;P1;durP2;ratioP2;P2;SDS_P1;SDS_P2;PMS_P1;PMS_P2;Temp;Humidity;BMP_temperature;BMP_pressure;BME280_temperature;BME280_humidity;BME280_pressure;Samples;Min_cycle;Max_cycle;Signal;HPM_P1;HPM_P2
2021/05/12 00:00:11;;;;;;;;;;;;;;;15.13;78.40;99931.94;5080154;28;20051;-82
2021/05/12 00:02:56;;;;;;;6.05;4.00;;;;;;;15.19;78.15;99927.72;5054324;28;20300;-81
2021/05/12 00:05:41;;;;;;;;;;;;;;;15.24;77.75;99928.22;5078947;28;20040;-82
2021/05/12 00:08:25;;;;;;;2.90;2.60;;;;;;;15.28;77.06;99920.88;5079316;28;20293;-82
2021/05/12 00:11:10;;;;;;;4.22;3.15;;;;;;;15.32;76.71;99927.19;5076818;28;20056;-82
2021/05/12 00:13:55;;;;;;;;;;;;;;;15.33;76.42;99926.03;5066595;28;20519;-82
2021/05/12 00:16:40;;;;;;;2.33;1.83;;;;;;;15.37;76.11;99932.38;5079735;28;19916;-82
2021/05/12 00:19:24;;;;;;;1.73;1.40;;;;;;;15.32;75.92;99932.69;5076694;28;20615;-82
2021/05/12 00:25:13;;;;;;;1.33;1.20;;;;;;;15.43;75.37;99932.06;5079350;28;19920;-82
2021/05/12 00:27:58;;;;;;;1.50;0.90;;;;;;;15.18;75.79;99926.97;5082483;28;20047;-81
2021/05/12 00:30:43;;;;;;;;;;;;;;;15.14;76.35;99928.81;5080770;28;20051;-82
2021/05/12 00:33:28;;;;;;;3.97;1.00;;;;;;;15.03;77.10;99925.13;5078551;28;19912;-82
2021/05/12 00:36:13;;;;;;;;;;;;;;;15.18;76.95;99921.47;5077739;28;20401;-82
2021/05/12 00:38:57;;;;;;;1.20;0.80;;;;;;;15.19;77.11;99922.25;5080331;28;19912;-82
2021/05/12 00:41:42;;;;;;;0.90;0.75;;;;;;;15.19;76.76;99920.31;5078830;28;20496;-80
2021/05/12 00:44:27;;;;;;;1.48;1.10;;;;;;;15.25;76.21;99907.88;5062526;28;20404;-82
2021/05/12 00:47:12;;;;;;;;;;;;;;;15.31;76.25;99914.66;5111091;22;20577;-83
2021/05/12 00:49:57;;;;;;;1.48;0.95;;;;;;;15.62;75.55;99902.66;5100940;28;19916;-83
2021/05/12 00:52:42;;;;;;;1.05;0.80;;;;;;;15.94;73.80;99900.38;5100946;28;20515;-82
2021/05/12 00:55:27;;;;;;;1.15;0.75;;;;;;;16.60;71.57;99894.19;5099743;28;20047;-82
2021/05/12 00:58:12;;;;;;;1.92;0.60;;;;;;;16.96;69.34;99895.34;5085575;28;20043;-82
2021/05/12 01:00:58;;;;;;;1.10;0.63;;;;;;;17.22;68.57;99899.09;5100439;28;20055;-83
2021/05/12 01:03:43;;;;;;;;;;;;;;;17.31;67.13;99902.31;5100809;28;20435;-83
2021/05/12 01:06:32;;;;;;;0.77;0.50;;;;;;;17.53;66.60;99901.28;5097043;28;20376;-83
2021/05/12 01:09:18;;;;;;;0.68;0.30;;;;;;;17.49;66.25;99900.47;5100503;28;20059;-83
2021/05/12 01:12:21;;;;;;;1.08;0.40;;;;;;;17.52;66.16;99896.97;5093914;28;20125;-81
2021/05/12 01:15:06;;;;;;;;;;;;;;;17.61;66.19;99897.47;5105234;28;20045;-83
2021/05/12 01:17:51;;;;;;;0.20;0.20;;;;;;;17.50;65.47;99891.06;5099358;28;19912;-82
2021/05/12 01:20:47;;;;;;;;;;;;;;;17.61;66.06;99899.41;5103343;28;20407;-82
2021/05/12 01:23:50;;;;;;;0.82;0.35;;;;;;;17.57;65.24;99895.84;5095753;28;19912;-83
2021/05/12 01:26:35;;;;;;;;;;;;;;;17.55;65.00;99893.47;5098011;28;20411;-83
2021/05/12 01:29:20;;;;;;;0.33;0.20;;;;;;;17.49;65.40;99884.78;5101660;28;19912;-82
2021/05/12 01:32:06;;;;;;;0.20;0.20;;;;;;;17.61;65.68;99885.66;5101517;28;20047;-82
2021/05/12 01:34:51;;;;;;;0.20;0.20;;;;;;;17.54;65.25;99880.88;5101200;28;20534;-82
2021/05/12 01:37:37;;;;;;;1.75;0.20;;;;;;;17.48;65.51;99879.66;5094084;28;20519;-82
2021/05/12 01:40:22;;;;;;;1.15;0.28;;;;;;;17.29;65.98;99883.44;5100226;28;20055;-82
2021/05/12 01:43:07;;;;;;;;;;;;;;;17.28;65.89;99887.34;5096215;28;20055;-82
2021/05/12 01:45:52;;;;;;;0.28;0.20;;;;;;;17.00;66.66;99898.09;5098641;28;19916;-82
2021/05/12 01:48:38;;;;;;;1.02;0.30;;;;;;;16.65;66.77;99885.59;5099986;28;20066;-81
2021/05/12 01:51:23;;;;;;;2.08;0.35;;;;;;;16.72;67.40;99881.31;5100036;28;20047;-82
2021/05/12 01:54:09;;;;;;;0.55;0.30;;;;;;;16.69;66.87;99874.66;5099809;28;20067;-81
2021/05/12 01:56:54;;;;;;;1.58;0.40;;;;;;;16.16;68.67;99876.75;5096675;28;20055;-83
2021/05/12 01:59:39;;;;;;;2.47;0.55;;;;;;;16.06;69.44;99869.97;5107773;28;20047;-84
2021/05/12 02:05:28;;;;;;;2.40;0.70;;;;;;;16.32;68.83;99865.56;5106427;28;20047;-84
2021/05/12 02:08:17;;;;;;;0.40;0.30;;;;;;;16.10;69.75;99862.56;5104880;28;20043;-86
2021/05/12 02:14:34;;;;;;;0.52;0.25;;;;;;;16.26;68.22;99865.91;5108467;28;20055;-84
2021/05/12 02:17:19;;;;;;;1.35;1.10;;;;;;;16.61;68.48;99862.00;5101893;28;20047;-83
2021/05/12 02:20:07;;;;;;;0.35;0.22;;;;;;;16.87;67.55;99856.38;5104088;28;20047;-84
2021/05/12 02:22:52;;;;;;;0.38;0.25;;;;;;;17.21;65.95;99859.84;5105715;28;20047;-83
2021/05/12 02:25:37;;;;;;;1.42;0.52;;;;;;;17.31;65.44;99852.84;5067873;28;20048;-84
2021/05/12 02:29:00;;;;;;;0.20;0.20;;;;;;;17.55;65.17;99860.47;5086313;28;20055;-83
2021/05/12 02:31:45;;;;;;;1.92;0.30;;;;;;;17.49;64.97;99859.25;5086550;28;20052;-84
2021/05/12 02:34:49;;;;;;;1.33;0.30;;;;;;;17.56;64.53;99850.25;5079567;28;20043;-83
2021/05/12 02:37:53;;;;;;;0.57;0.30;;;;;;;17.49;64.38;99857.28;5079017;28;20071;-83
2021/05/12 02:40:57;;;;;;;0.20;0.10;;;;;;;17.49;64.51;99862.00;5082920;28;20052;-82
2021/05/12 02:43:42;;;;;;;0.17;0.10;;;;;;;16.96;65.46;99862.38;5080180;28;20055;-85
2021/05/12 02:46:27;;;;;;;2.08;0.15;;;;;;;16.80;66.94;99866.53;5068857;28;20515;-83
2021/05/12 02:49:11;;;;;;;;;;;;;;;16.70;67.10;99861.72;5087354;28;20048;-83
2021/05/12 02:51:56;;;;;;;4.07;0.35;;;;;;;16.95;66.77;99858.03;5088417;28;19912;-83
2021/05/12 02:55:00;;;;;;;1.05;0.30;;;;;;;17.26;66.08;99855.94;5087050;28;20052;-82
2021/05/12 03:00:51;;;;;;;1.13;0.20;;;;;;;17.26;65.09;99853.97;5086848;28;20447;-83
2021/05/12 03:03:37;;;;;;;0.20;0.15;;;;;;;17.28;64.87;99848.88;5081536;28;20439;-81
2021/05/12 03:06:33;;;;;;;0.22;0.20;;;;;;;17.34;64.64;99849.31;5086916;28;20043;-83
2021/05/12 03:09:17;;;;;;;4.07;0.22;;;;;;;17.46;65.35;99849.03;5083783;28;20059;-84
2021/05/12 03:15:11;;;;;;;3.03;0.40;;;;;;;17.54;64.46;99851.44;5077727;28;20048;-82
2021/05/12 03:18:14;;;;;;;1.38;0.10;;;;;;;17.41;64.13;99852.13;5086278;28;20052;-82
2021/05/12 03:20:59;;;;;;;2.83;0.20;;;;;;;17.30;64.85;99857.53;5083035;28;20039;-82
2021/05/12 03:23:46;;;;;;;0.85;0.28;;;;;;;17.33;65.02;99850.47;5082517;28;20052;-83
2021/05/12 03:26:32;;;;;;;0.55;0.10;;;;;;;17.23;65.14;99856.69;5079185;28;20051;-84
2021/05/12 03:29:18;;;;;;;1.40;0.63;;;;;;;16.98;65.57;99857.28;5082139;28;20055;-83
2021/05/12 03:32:04;;;;;;;0.15;0.15;;;;;;;17.05;66.01;99857.34;5082158;28;20051;-83
2021/05/12 03:35:08;;;;;;;0.30;0.10;;;;;;;16.92;66.33;99858.00;5076424;28;20043;-84
2021/05/12 03:37:56;;;;;;;2.55;0.20;;;;;;;16.83;66.47;99855.56;5088186;28;20039;-83
2021/05/12 03:40:41;;;;;;;0.30;0.10;;;;;;;17.10;66.20;99847.97;5085043;28;20054;-83
2021/05/12 03:43:27;;;;;;;0.20;0.10;;;;;;;17.37;65.19;99845.81;5085362;28;20400;-83
2021/05/12 03:46:12;;;;;;;;;;;;;;;17.59;64.41;99846.72;5077986;28;20047;-81
2021/05/12 03:48:57;;;;;;;0.45;0.20;;;;;;;17.68;63.86;99838.94;5083540;28;19912;-82
2021/05/12 03:51:43;;;;;;;0.38;0.10;;;;;;;17.59;64.19;99841.22;5083138;28;20526;-82
2021/05/12 03:54:27;;;;;;;2.03;0.45;;;;;;;17.55;63.84;99843.97;5082511;28;20052;-81
2021/05/12 03:57:31;;;;;;;0.10;0.10;;;;;;;17.37;63.93;99832.84;5076787;28;20051;-82
2021/05/12 04:00:17;;;;;;;2.05;0.10;;;;;;;17.43;64.84;99833.28;5066371;28;20519;-82
2021/05/12 04:03:02;;;;;;;1.05;0.20;;;;;;;17.48;64.54;99830.16;5081521;28;20052;-81
2021/05/12 04:05:46;;;;;;;0.20;0.10;;;;;;;17.54;63.61;99839.63;5080105;28;20069;-81
2021/05/12 04:08:32;;;;;;;0.22;0.22;;;;;;;17.67;63.68;99829.94;5081372;28;20051;-82
2021/05/12 04:11:17;;;;;;;0.30;0.10;;;;;;;17.75;63.44;99828.81;5080897;28;20408;-85
2021/05/12 04:14:02;;;;;;;;;;;;;;;17.76;63.67;99835.09;5081325;28;20404;-82
2021/05/12 04:16:48;;;;;;;0.20;0.10;;;;;;;17.83;63.24;99832.34;5076738;28;19916;-82
2021/05/12 04:19:33;;;;;;;1.25;0.10;;;;;;;17.95;62.62;99835.59;5080447;28;20064;-82
2021/05/12 04:22:18;;;;;;;;;;;;;;;17.91;62.93;99832.03;5081046;28;20044;-84
2021/05/12 04:25:05;;;;;;;0.80;0.27;;;;;;;17.84;62.63;99815.47;5078093;28;19912;-82
2021/05/12 04:27:50;;;;;;;0.98;0.20;;;;;;;17.99;62.56;99827.34;5065842;28;20055;-81
2021/05/12 04:30:35;;;;;;;4.40;0.30;;;;;;;18.02;62.25;99831.28;5073972;28;20051;-84
2021/05/12 04:36:43;;;;;;;0.85;0.20;;;;;;;17.93;62.54;99828.88;5076836;28;20047;-83
2021/05/12 04:39:29;;;;;;;8.10;0.22;;;;;;;17.98;62.47;99842.25;5080546;28;20519;-83
2021/05/12 04:42:32;;;;;;;0.57;0.20;;;;;;;17.99;62.03;99845.81;5080104;28;20107;-85
2021/05/12 04:45:19;;;;;;;0.93;0.20;;;;;;;18.04;61.92;99845.44;5080036;28;20039;-83
2021/05/12 04:48:04;;;;;;;0.20;0.20;;;;;;;18.06;61.48;99843.09;5076862;28;20511;-83
2021/05/12 04:50:48;;;;;;;;;;;;;;;18.18;61.24;99845.50;5084639;28;20051;-84
2021/05/12 04:53:51;;;;;;;0.45;0.20;;;;;;;18.15;61.81;99846.28;5077534;28;19917;-83
2021/05/12 04:56:39;;;;;;;2.38;0.30;;;;;;;17.94;61.80;99842.25;5079087;28;20056;-83
2021/05/12 04:59:24;;;;;;;1.48;0.40;;;;;;;18.08;61.91;99835.25;5082626;28;20067;-83
2021/05/12 05:02:11;;;;;;;;;;;;;;;18.10;62.12;99838.38;5084143;28;20047;-83
2021/05/12 05:04:56;;;;;;;1.05;0.40;;;;;;;18.13;61.90;99843.13;5082713;28;19913;-83
2021/05/12 05:07:41;;;;;;;;;;;;;;;18.16;61.55;99853.34;5077982;28;20516;-85
2021/05/12 05:10:47;;;;;;;2.60;0.57;;;;;;;18.16;61.73;99843.13;5076901;28;20360;-84
2021/05/12 05:13:34;;;;;;;0.82;0.30;;;;;;;18.12;61.61;99853.34;5083443;28;20050;-84
2021/05/12 05:16:19;;;;;;;1.20;0.30;;;;;;;18.15;60.98;99849.81;5079207;28;20051;-82
2021/05/12 05:19:04;;;;;;;2.75;0.38;;;;;;;17.98;60.77;99847.00;5082923;28;20047;-84
2021/05/12 05:25:11;;;;;;;0.10;0.10;;;;;;;17.91;60.38;99856.78;5082385;28;19938;-84
2021/05/12 05:27:55;;;;;;;1.15;0.40;;;;;;;17.81;60.80;99843.78;5078858;28;20059;-84
2021/05/12 05:31:00;;;;;;;2.28;0.30;;;;;;;17.78;60.35;99846.47;5082691;28;20047;-85
2021/05/12 05:34:03;;;;;;;3.25;1.10;;;;;;;17.72;60.58;99837.84;5076209;28;20048;-85
2021/05/12 05:37:07;;;;;;;1.10;0.40;;;;;;;17.62;61.07;99846.81;5075603;28;20063;-86
2021/05/12 05:40:12;;;;;;;6.65;0.50;;;;;;;17.81;61.00;99848.47;5074555;28;20055;-83
2021/05/12 05:43:16;;;;;;;6.43;0.50;;;;;;;17.89;61.15;99844.56;5074158;28;20055;-81
2021/05/12 05:49:52;;;;;;;3.20;1.88;;;;;;;17.77;61.62;99858.69;5026471;28;20052;-82
2021/05/12 05:52:56;;;;;;;4.45;2.28;;;;;;;17.79;61.54;99851.59;5073561;28;20059;-82
2021/05/12 05:56:00;;;;;;;2.85;2.00;;;;;;;17.81;61.36;99849.28;5073460;28;20043;-83
2021/05/12 06:02:26;;;;;;;158.32;25.85;;;;;;;17.91;61.64;99862.28;5073373;28;20515;-83
2021/05/12 06:05:47;;;;;;;38.00;10.70;;;;;;;18.03;61.35;99871.38;5075750;28;20044;-82
2021/05/12 06:08:52;;;;;;;7.30;4.63;;;;;;;17.86;61.75;99862.66;5077670;28;20051;-81
2021/05/12 06:12:15;;;;;;;5.72;3.97;;;;;;;17.85;61.71;99861.06;5076169;28;20436;-81
2021/05/12 06:15:20;;;;;;;6.82;4.32;;;;;;;17.85;62.11;99865.78;5054635;28;20052;-82
2021/05/12 06:18:24;;;;;;;6.85;4.85;;;;;;;17.86;62.01;99881.13;5068723;28;20535;-81
2021/05/12 06:21:28;;;;;;;7.47;5.75;;;;;;;17.87;62.17;99877.19;5075108;28;20048;-82
2021/05/12 06:24:31;;;;;;;8.30;5.20;;;;;;;17.89;62.24;99883.09;5073900;28;20440;-81
2021/05/12 06:27:39;;;;;;;7.90;5.88;;;;;;;17.91;62.12;99886.25;5072728;28;20047;-80
2021/05/12 06:30:49;;;;;;;8.10;5.90;;;;;;;17.93;61.83;99884.69;5071653;28;20039;-82
2021/05/12 06:33:54;;;;;;;8.93;5.47;;;;;;;18.05;61.59;99886.31;5072416;28;20052;-81
2021/05/12 06:36:57;;;;;;;11.40;6.32;;;;;;;17.94;61.74;99889.00;5071520;28;20059;-80
2021/05/12 06:40:02;;;;;;;8.98;5.57;;;;;;;17.99;61.62;99881.56;5071929;28;20051;-81
2021/05/12 06:42:48;;;;;;;7.03;5.45;;;;;;;17.99;61.56;99889.81;5074684;28;20043;-80
2021/05/12 06:45:52;;;;;;;6.82;5.88;;;;;;;17.95;61.44;99898.84;5071502;28;20409;-81
2021/05/12 06:48:37;;;;;;;;;;;;;;;17.99;61.62;99900.81;5103805;22;20052;-79
2021/05/12 06:51:21;;;;;;;8.48;5.95;;;;;;;17.99;61.50;99898.88;5093407;28;19916;-80
2021/05/12 06:54:07;;;;;;;6.05;5.15;;;;;;;17.98;61.21;99904.78;5081514;28;20056;-80
2021/05/12 06:56:52;;;;;;;;;;;;;;;18.04;61.43;99911.47;5079739;28;20048;-80
2021/05/12 06:59:36;;;;;;;8.93;5.78;;;;;;;17.95;61.60;99909.84;5083183;28;19912;-80
2021/05/12 07:02:21;;;;;;;7.18;5.68;;;;;;;17.98;61.45;99913.78;5081474;28;20044;-80
2021/05/12 07:08:10;;;;;;;6.88;5.72;;;;;;;18.04;61.24;99927.97;5079801;28;20408;-80
2021/05/12 07:10:55;;;;;;;6.95;5.15;;;;;;;18.04;61.15;99930.72;5080860;28;20603;-80
2021/05/12 07:13:59;;;;;;;6.55;5.35;;;;;;;18.04;61.15;99934.25;5078778;28;20047;-79
2021/05/12 07:16:44;;;;;;;6.30;5.05;;;;;;;18.08;61.03;99934.31;5095145;28;20058;-79
2021/05/12 07:19:47;;;;;;;5.10;4.22;;;;;;;18.13;60.88;99931.19;5079794;28;20401;-80
2021/05/12 07:22:32;;;;;;;17.38;6.00;;;;;;;18.02;61.19;99942.13;5083474;28;20047;-80
2021/05/12 07:25:18;;;;;;;7.13;4.85;;;;;;;18.12;60.96;99940.59;5094954;28;20430;-80
2021/05/12 07:28:04;;;;;;;11.45;5.72;;;;;;;18.15;60.71;99942.59;5078888;28;20040;-80
2021/05/12 07:30:50;;;;;;;5.80;4.82;;;;;;;18.10;60.98;99948.44;5082996;28;20052;-80
2021/05/12 07:33:53;;;;;;;7.10;5.20;;;;;;;18.10;60.93;99949.25;5080991;28;20047;-80
2021/05/12 07:36:39;;;;;;;6.38;4.93;;;;;;;18.08;60.82;99948.06;5077697;28;20043;-80
2021/05/12 07:39:26;;;;;;;6.55;5.07;;;;;;;18.03;61.28;99951.19;5082094;28;20051;-80
2021/05/12 07:42:13;;;;;;;7.10;4.72;;;;;;;18.10;60.98;99951.19;5080433;28;20063;-80
2021/05/12 07:45:17;;;;;;;4.53;4.07;;;;;;;18.20;60.61;99964.22;5078402;28;20051;-79
2021/05/12 07:48:05;;;;;;;5.47;4.80;;;;;;;18.19;60.44;99970.91;5079194;28;20047;-79
2021/05/12 07:50:51;;;;;;;7.03;3.97;;;;;;;18.15;60.29;99964.59;5082806;28;20055;-79
2021/05/12 07:53:54;;;;;;;4.78;3.60;;;;;;;18.13;60.83;99966.97;5084349;28;20055;-79
2021/05/12 07:56:58;;;;;;;4.07;3.67;;;;;;;18.24;60.32;99976.03;5081319;28;20043;-79
2021/05/12 07:59:43;;;;;;;4.65;3.17;;;;;;;18.24;60.21;99976.03;5078411;28;20079;-79
2021/05/12 08:02:29;;;;;;;4.60;2.97;;;;;;;18.27;60.14;99962.31;5081738;28;20044;-79
2021/05/12 08:08:38;;;;;;;6.60;3.10;;;;;;;18.32;60.35;99970.22;5080714;28;20047;-80
2021/05/12 08:11:23;;;;;;;14.10;3.65;;;;;;;18.20;60.53;99980.75;5082623;28;20052;-80
2021/05/12 08:14:08;;;;;;;16.50;3.47;;;;;;;18.12;60.34;99960.66;5079369;28;20052;-80
2021/05/12 08:17:11;;;;;;;7.03;2.63;;;;;;;18.13;60.73;99976.00;5083523;28;20413;-81
2021/05/12 08:19:59;;;;;;;8.65;3.17;;;;;;;18.05;60.92;99977.13;5082790;28;20047;-79
2021/05/12 08:22:44;;;;;;;6.47;2.15;;;;;;;18.05;60.84;99977.13;5093508;28;20059;-78
2021/05/12 08:25:29;;;;;;;8.55;2.30;;;;;;;18.10;61.07;99978.72;5083181;28;20056;-81
2021/05/12 08:28:15;;;;;;;5.45;2.47;;;;;;;17.97;60.03;99981.00;5079551;28;20535;-79
2021/05/12 08:31:00;;;;;;;4.68;2.20;;;;;;;17.98;60.72;99982.56;5080582;28;20526;-80
2021/05/12 08:33:46;;;;;;;5.70;2.60;;;;;;;17.93;60.94;99989.22;5074951;28;20043;-82
2021/05/12 08:36:31;;;;;;;;;;;;;;;17.89;61.14;99988.41;5074328;28;20048;-80
2021/05/12 08:39:16;;;;;;;8.25;2.67;;;;;;;17.69;62.04;99989.81;5068076;28;19912;-80
2021/05/12 08:42:02;;;;;;;4.28;2.65;;;;;;;17.61;62.77;99993.69;5072844;28;20047;-80
2021/05/12 08:44:49;;;;;;;10.18;2.97;;;;;;;17.42;63.30;99994.66;5074785;28;20048;-81
2021/05/12 08:50:42;;;;;;;5.72;2.17;;;;;;;17.69;62.17;99994.53;5069688;28;20052;-78
2021/05/12 08:53:27;;;;;;;5.55;1.95;;;;;;;17.47;62.53;99999.81;5064274;28;20052;-81
2021/05/12 08:56:13;;;;;;;6.82;2.38;;;;;;;17.68;62.47;99996.50;5068918;28;20048;-81
2021/05/12 09:05:10;;;;;;;5.07;2.58;;;;;;;17.53;62.46;99986.50;5069867;28;20060;-81
2021/05/12 09:07:56;;;;;;;7.60;3.35;;;;;;;17.34;62.73;99986.72;5078055;28;20059;-81
2021/05/12 09:10:41;;;;;;;4.78;2.33;;;;;;;17.46;62.20;99978.22;5075819;28;20051;-81
2021/05/12 09:13:33;;;;;;;5.82;2.42;;;;;;;17.42;62.61;99983.66;5066781;28;20564;-81
2021/05/12 09:16:25;;;;;;;2.97;1.80;;;;;;;17.61;62.41;99979.94;5065547;28;20523;-81
2021/05/12 09:19:29;;;;;;;4.20;1.98;;;;;;;17.80;61.75;99982.44;5070982;28;20040;-81
2021/05/12 09:22:17;;;;;;;7.00;3.72;;;;;;;17.63;62.44;99990.53;5074657;28;20036;-81
2021/05/12 09:28:29;;;;;;;7.57;4.85;;;;;;;17.73;62.39;99990.63;5066526;28;20040;-81
2021/05/12 09:31:15;;;;;;;8.48;3.38;;;;;;;17.76;62.20;99992.63;5064692;28;20044;-80
2021/05/12 09:34:00;;;;;;;7.30;5.00;;;;;;;17.93;61.81;99983.72;5080139;28;20052;-81
2021/05/12 09:36:45;;;;;;;;;;;;;;;18.08;61.13;99979.09;5072146;28;20271;-79
2021/05/12 09:39:29;;;;;;;5.30;3.63;;;;;;;18.10;61.25;99975.97;5072629;28;19900;-79
2021/05/12 09:42:19;;;;;;;6.53;4.55;;;;;;;18.04;61.59;99972.78;5077304;28;20054;-80
2021/05/12 09:45:19;;;;;;;7.78;4.35;;;;;;;18.00;61.67;99982.97;5071095;28;20043;-80
2021/05/12 09:48:05;;;;;;;6.00;4.60;;;;;;;17.90;62.07;99984.50;5067527;28;20052;-81
2021/05/12 09:50:50;;;;;;;7.32;5.68;;;;;;;17.85;62.31;99976.59;5075529;28;20052;-81
2021/05/12 09:53:35;;;;;;;7.22;4.28;;;;;;;18.01;61.68;99981.81;5078276;28;20047;-81
2021/05/12 09:56:49;;;;;;;6.40;4.93;;;;;;;18.02;61.11;99983.41;5068153;28;20047;-81
2021/05/12 09:59:34;;;;;;;6.82;4.43;;;;;;;17.99;61.18;99984.16;5069115;28;20040;-82
2021/05/12 10:02:19;;;;;;;5.75;4.40;;;;;;;18.05;61.07;99976.31;5064226;28;20412;-80
2021/05/12 10:05:04;;;;;;;7.82;5.55;;;;;;;17.92;60.71;99986.88;5074820;28;20051;-81
2021/05/12 10:07:52;;;;;;;9.65;4.70;;;;;;;18.00;61.20;99991.22;5068555;28;20103;-82
2021/05/12 10:10:41;;;;;;;9.95;3.88;;;;;;;18.17;60.67;99982.31;5066136;28;20052;-82
2021/05/12 10:13:26;;;;;;;6.90;3.38;;;;;;;18.22;60.45;99989.41;5078806;28;20051;-82
2021/05/12 10:19:35;;;;;;;5.72;3.70;;;;;;;18.11;59.97;99983.84;5085518;28;20056;-80
2021/05/12 10:22:20;;;;;;;9.05;3.60;;;;;;;18.11;59.53;99981.09;5075527;28;20559;-81
2021/05/12 10:25:24;;;;;;;5.05;3.45;;;;;;;18.18;60.07;99972.09;5070846;28;20543;-80
2021/05/12 10:28:09;;;;;;;4.40;3.13;;;;;;;18.44;59.63;99974.56;5065250;28;20409;-82
2021/05/12 10:31:13;;;;;;;6.75;4.70;;;;;;;18.62;58.65;99970.00;5063585;28;20048;-81
2021/05/12 10:33:58;;;;;;;;;;;;;;;18.55;59.50;99967.19;5076488;28;20520;-82
2021/05/12 10:36:43;;;;;;;6.55;4.25;;;;;;;18.65;60.33;99960.16;5066361;28;20308;-81
2021/05/12 10:40:01;;;;;;;8.00;4.35;;;;;;;18.81;58.23;99966.09;5061824;28;20056;-81
2021/05/12 10:46:05;;;;;;;5.75;4.45;;;;;;;18.78;59.10;99972.41;5088498;28;20119;-82
2021/05/12 10:48:53;;;;;;;5.40;3.70;;;;;;;18.66;58.85;99962.53;5062947;28;20051;-83
2021/05/12 10:52:05;;;;;;;7.15;3.03;;;;;;;18.65;59.11;99963.69;5066861;28;20055;-82
2021/05/12 10:54:53;;;;;;;4.35;3.30;;;;;;;18.73;58.90;99964.53;5069602;28;20056;-81
2021/05/12 10:57:49;;;;;;;4.45;3.40;;;;;;;18.56;58.73;99963.28;5071558;28;20128;-81
2021/05/12 11:00:58;;;;;;;5.53;4.53;;;;;;;18.62;57.12;99961.72;5068697;28;20055;-82
2021/05/12 11:03:49;;;;;;;5.03;3.88;;;;;;;18.59;58.91;99962.47;5066727;28;20055;-82
2021/05/12 11:06:34;;;;;;;5.88;3.97;;;;;;;18.66;59.10;99964.47;5063418;28;20064;-82
2021/05/12 11:09:36;;;;;;;10.02;4.65;;;;;;;18.66;58.66;99965.28;5063889;28;20048;-82
2021/05/12 11:12:31;;;;;;;67.22;12.60;;;;;;;18.79;58.13;99960.22;5067138;28;20044;-83
2021/05/12 11:15:17;;;;;;;115.55;24.15;;;;;;;18.95;59.01;99966.16;5065537;28;20511;-82
2021/05/12 11:18:02;;;;;;;13.27;5.00;;;;;;;18.88;57.02;99968.09;5081681;28;20484;-79
2021/05/12 11:21:21;;;;;;;16.52;6.07;;;;;;;18.87;57.04;99963.78;5081642;28;20522;-80
2021/05/12 11:24:13;;;;;;;40.05;10.82;;;;;;;18.89;58.76;99966.94;5075668;28;20048;-79
2021/05/12 11:27:27;;;;;;;42.88;9.35;;;;;;;19.02;59.23;99966.19;5068401;28;20086;-79
2021/05/12 11:33:32;;;;;;;16.50;5.60;;;;;;;19.13;60.62;99960.69;5070917;28;20040;-80
2021/05/12 11:36:21;;;;;;;15.50;4.95;;;;;;;19.20;59.81;99957.94;5068091;28;20048;-81
2021/05/12 11:39:05;;;;;;;8.77;4.78;;;;;;;19.28;60.07;99961.50;5072621;28;20048;-81
2021/05/12 11:41:51;;;;;;;8.27;5.20;;;;;;;19.11;57.71;99955.56;5072139;28;20064;-81
2021/05/12 11:44:36;;;;;;;8.75;5.43;;;;;;;19.18;56.75;99952.03;5070306;28;20043;-81
2021/05/12 11:47:32;;;;;;;10.30;6.18;;;;;;;19.09;61.06;99954.38;5073194;28;20044;-81
2021/05/12 11:50:22;;;;;;;5.60;3.92;;;;;;;19.12;54.38;99945.31;5069120;28;20047;-81
2021/05/12 11:53:06;;;;;;;9.27;3.97;;;;;;;19.34;53.98;99944.19;5072393;28;20055;-81
2021/05/12 11:59:02;;;;;;;6.53;4.03;;;;;;;19.23;58.82;99941.41;5071496;28;20390;-81
2021/05/12 12:01:51;;;;;;;6.13;4.95;;;;;;;19.31;54.98;99938.66;5073699;28;20058;-80
2021/05/12 12:04:46;;;;;;;6.53;4.03;;;;;;;19.42;56.83;99939.44;5065584;28;20055;-80
2021/05/12 12:07:34;;;;;;;6.57;4.22;;;;;;;19.44;58.17;99932.41;5056799;28;20036;-79
2021/05/12 12:10:38;;;;;;;12.77;5.65;;;;;;;19.48;58.03;99932.38;5061287;28;20052;-80
2021/05/12 12:13:23;;;;;;;6.93;4.38;;;;;;;19.64;55.47;99924.50;5058958;28;20048;-80
2021/05/12 12:16:09;;;;;;;6.20;3.88;;;;;;;19.70;53.89;99922.13;5063871;28;20052;-79
2021/05/12 12:18:55;;;;;;;10.93;6.47;;;;;;;19.67;54.84;99907.16;5061598;28;20069;-80
2021/05/12 12:21:43;;;;;;;6.07;3.80;;;;;;;19.71;55.83;99912.69;5059041;28;20047;-79
2021/05/12 12:24:29;;;;;;;10.43;4.50;;;;;;;19.77;52.96;99906.34;5063342;28;20048;-79
2021/05/12 12:27:19;;;;;;;7.25;4.28;;;;;;;19.78;54.08;99904.38;5060699;28;20051;-79
2021/05/12 12:30:05;;;;;;;5.50;3.75;;;;;;;19.83;54.72;99906.72;5058709;28;20040;-79
2021/05/12 12:32:50;;;;;;;6.03;4.13;;;;;;;19.79;54.34;99903.19;5062887;28;20056;-79
2021/05/12 12:36:05;;;;;;;5.50;3.50;;;;;;;19.92;54.62;99896.06;5057371;28;20413;-80
2021/05/12 12:38:55;;;;;;;14.55;4.78;;;;;;;19.92;53.38;99898.81;5057568;28;20047;-77
2021/05/12 12:41:41;;;;;;;8.63;5.00;;;;;;;19.98;53.05;99900.78;5060593;28;20048;-80
2021/05/12 12:44:37;;;;;;;7.97;4.82;;;;;;;20.15;52.61;99888.13;5059465;28;20065;-80
2021/05/12 12:47:24;;;;;;;6.47;5.03;;;;;;;20.33;50.68;99888.88;5061407;28;20044;-80
2021/05/12 12:50:09;;;;;;;7.00;4.55;;;;;;;20.30;51.20;99886.09;5101777;23;20047;-78
2021/05/12 12:53:06;;;;;;;8.02;5.15;;;;;;;20.29;51.55;99885.31;5093306;28;20043;-81
2021/05/12 12:55:51;;;;;;;8.18;5.90;;;;;;;20.31;51.91;99868.38;5096870;28;20039;-80
2021/05/12 12:58:36;;;;;;;7.28;5.63;;;;;;;20.29;52.92;99865.97;5095388;28;20421;-79
2021/05/12 13:01:40;;;;;;;12.70;5.70;;;;;;;20.42;50.67;99869.09;5098926;28;20406;-80
2021/05/12 13:04:26;;;;;;;6.22;5.10;;;;;;;20.60;50.62;99866.25;5096155;28;20517;-79
2021/05/12 13:07:15;;;;;;;5.93;3.90;;;;;;;20.52;51.46;99861.97;5094172;28;20063;-79
2021/05/12 13:10:35;;;;;;;8.27;5.28;;;;;;;20.47;52.25;99860.38;5097374;28;20406;-79
2021/05/12 13:13:25;;;;;;;11.35;6.85;;;;;;;20.61;52.67;99862.31;5094226;28;20051;-79
2021/05/12 13:16:32;;;;;;;8.95;5.55;;;;;;;20.69;51.69;99861.06;5097924;28;20043;-80
2021/05/12 13:19:20;;;;;;;9.63;5.85;;;;;;;20.72;50.66;99865.78;5094440;28;20051;-79
2021/05/12 13:22:23;;;;;;;8.75;5.85;;;;;;;20.86;50.98;99857.41;5098813;28;20047;-80
2021/05/12 13:25:08;;;;;;;10.63;5.65;;;;;;;20.86;51.36;99857.41;5095928;28;20043;-80
2021/05/12 13:27:54;;;;;;;10.35;5.90;;;;;;;20.83;50.43;99852.66;5094019;28;20047;-80
2021/05/12 13:30:38;;;;;;;5.53;4.85;;;;;;;20.83;50.12;99860.97;5084133;28;20052;-79
2021/05/12 13:33:25;;;;;;;8.32;5.75;;;;;;;21.03;50.83;99856.47;5093773;28;20046;-80
2021/05/12 13:36:10;;;;;;;9.10;6.03;;;;;;;21.20;49.16;99858.34;5089320;28;20130;-79
2021/05/12 13:38:55;;;;;;;7.25;4.65;;;;;;;21.03;50.14;99858.47;5093173;28;20035;-80
2021/05/12 13:41:40;;;;;;;6.72;4.55;;;;;;;20.74;50.51;99864.19;5096819;28;20054;-79
2021/05/12 13:44:25;;;;;;;5.80;4.60;;;;;;;20.84;50.06;99857.00;5078107;28;20059;-79
2021/05/12 13:47:10;;;;;;;7.82;4.82;;;;;;;21.10;50.49;99858.41;5082013;28;20047;-81
2021/05/12 13:49:55;;;;;;;6.50;5.00;;;;;;;21.31;48.09;99858.25;5090750;28;20047;-81
2021/05/12 14:04:28;;;;;;;7.22;4.80;;;;;;;21.00;49.95;99849.00;5100715;28;20039;-81
2021/05/12 14:07:13;;;;;;;5.78;4.40;;;;;;;21.02;49.06;99843.88;5098553;28;20063;-78
2021/05/12 14:10:18;;;;;;;6.43;4.00;;;;;;;21.13;47.86;99841.00;5096742;28;20429;-79
2021/05/12 14:13:24;;;;;;;11.75;4.47;;;;;;;20.95;48.27;99827.31;5099728;28;20405;-80
2021/05/12 14:16:31;;;;;;;5.45;3.65;;;;;;;21.00;48.41;99835.19;5096684;28;20047;-79
2021/05/12 14:19:14;;;;;;;3.97;3.10;;;;;;;21.11;48.18;99835.09;5099964;28;20047;-80
2021/05/12 14:21:59;;;;;;;4.22;3.28;;;;;;;20.95;47.89;99830.09;5097743;28;20067;-79
2021/05/12 14:24:44;;;;;;;7.20;4.30;;;;;;;21.05;47.40;99834.75;5101427;28;20062;-79
2021/05/12 14:27:31;;;;;;;6.90;3.45;;;;;;;21.04;47.67;99826.84;5098590;28;20039;-79
2021/05/12 14:30:16;;;;;;;4.30;3.35;;;;;;;20.87;46.75;99825.81;5093250;28;20042;-80
2021/05/12 14:33:01;;;;;;;2.83;2.33;;;;;;;20.83;47.23;99830.56;5066230;28;20047;-81
2021/05/12 14:35:46;;;;;;;3.95;2.95;;;;;;;20.69;48.46;99825.94;5079446;28;20411;-81
2021/05/12 14:38:34;;;;;;;5.40;3.25;;;;;;;20.87;48.43;99828.56;5077692;28;20506;-80
2021/05/12 14:41:57;;;;;;;8.10;2.90;;;;;;;20.85;47.69;99828.19;5075674;28;20052;-80